createdAt,value
2019-01-30T00:00:37.971Z,34.86
2019-01-30T00:01:37.934Z,35.46
2019-01-30T00:02:37.959Z,34.66
2019-01-30T00:03:37.911Z,34.56
2019-01-30T00:04:37.916Z,35.06
2019-01-30T00:05:37.916Z,34.45
2019-01-30T00:06:37.941Z,35.26
2019-01-30T00:07:37.913Z,35.26
2019-01-30T00:08:37.884Z,35.57
2019-01-30T00:09:37.863Z,36.87
2019-01-30T00:10:37.862Z,35.57
2019-01-30T00:11:37.850Z,34.76
2019-01-30T00:12:37.861Z,34.45
2019-01-30T00:13:37.847Z,34.66
2019-01-30T00:14:37.795Z,34.86
2019-01-30T00:15:37.787Z,34.86
2019-01-30T00:16:37.818Z,35.16
2019-01-30T00:17:37.833Z,34.76
2019-01-30T00:18:37.833Z,34.64
2019-01-30T00:19:37.811Z,35.05
2019-01-30T00:20:37.807Z,34.36
2019-01-30T00:21:37.811Z,34.66
2019-01-30T00:22:37.786Z,33.45
2019-01-30T00:23:37.731Z,34.56
2019-01-30T00:24:37.746Z,35.26
2019-01-30T00:25:37.684Z,35.16
2019-01-30T00:26:37.842Z,34.76
2019-01-30T00:27:37.715Z,34.16
2019-01-30T00:28:37.702Z,34.56
2019-01-30T00:29:37.676Z,35.57
2019-01-30T00:30:37.657Z,35.16
2019-01-30T00:31:37.651Z,33.35
2019-01-30T00:32:37.615Z,34.16
2019-01-30T00:33:37.611Z,33.55
2019-01-30T00:34:37.605Z,34.66
2019-01-30T00:35:37.571Z,33.75
2019-01-30T00:36:37.605Z,34.45
2019-01-30T00:37:37.552Z,33.25
2019-01-30T00:38:37.555Z,34.76
2019-01-30T00:39:37.549Z,34.76
2019-01-30T00:40:37.559Z,34.45
2019-01-30T00:41:37.533Z,35.16
2019-01-30T00:42:37.495Z,33.35
2019-01-30T00:43:37.502Z,33.15
2019-01-30T00:44:37.517Z,34.66
2019-01-30T00:45:37.539Z,33.75
2019-01-30T00:46:37.496Z,34.64
2019-01-30T00:47:37.460Z,34.66
2019-01-30T00:48:37.429Z,32.75
2019-01-30T00:49:37.410Z,33.15
2019-01-30T00:50:37.554Z,34.66
2019-01-30T00:51:37.430Z,33.04
2019-01-30T00:52:37.392Z,32.95
2019-01-30T00:53:37.393Z,34.45
2019-01-30T00:54:37.375Z,32.84
2019-01-30T00:55:37.362Z,33.04
2019-01-30T00:56:37.387Z,33.85
2019-01-30T00:57:37.324Z,35.26
2019-01-30T00:58:37.349Z,33.85
2019-01-30T00:59:37.317Z,35.57
2019-01-30T01:00:37.292Z,35.57
2019-01-30T01:01:37.311Z,33.25
2019-01-30T01:02:37.390Z,33.75
2019-01-30T01:03:37.283Z,34.86
2019-01-30T01:04:37.276Z,33.65
2019-01-30T01:05:37.260Z,34.86
2019-01-30T01:06:41.854Z,33.65
2019-01-30T01:07:37.215Z,33.65
2019-01-30T01:08:37.201Z,33.75
2019-01-30T01:09:37.232Z,35.16
2019-01-30T01:10:37.219Z,33.75
2019-01-30T01:11:37.214Z,34.56
2019-01-30T01:12:37.171Z,35.36
2019-01-30T01:13:37.177Z,33.04
2019-01-30T01:14:37.244Z,33.35
2019-01-30T01:15:37.219Z,34.66
2019-01-30T01:16:37.155Z,34.86
2019-01-30T01:17:37.204Z,35.06
2019-01-30T01:18:37.184Z,34.56
2019-01-30T01:19:37.140Z,35.16
2019-01-30T01:20:37.137Z,34.66
2019-01-30T01:21:37.214Z,35.16
2019-01-30T01:22:37.086Z,33.55
2019-01-30T01:23:37.092Z,34.66
2019-01-30T01:24:37.052Z,33.55
2019-01-30T01:25:37.045Z,34.66
2019-01-30T01:26:37.114Z,34.56
2019-01-30T01:27:37.017Z,33.97
2019-01-30T01:28:37.372Z,35.86
2019-01-30T01:29:36.981Z,33.85
2019-01-30T01:30:36.964Z,34.66
2019-01-30T01:31:36.995Z,33.45
2019-01-30T01:32:36.979Z,33.85
2019-01-30T01:33:36.959Z,34.45
2019-01-30T01:34:36.935Z,33.45
2019-01-30T01:35:37.046Z,35.57
2019-01-30T01:36:36.959Z,33.25
2019-01-30T01:37:36.893Z,35.36
2019-01-30T01:38:36.883Z,35.36
2019-01-30T01:39:36.860Z,32.95
2019-01-30T01:40:36.882Z,33.75
2019-01-30T01:41:36.870Z,34.16
2019-01-30T01:42:36.881Z,32.24
2019-01-30T01:43:36.819Z,33.25
2019-01-30T01:44:36.849Z,34.05
2019-01-30T01:45:36.924Z,33.35
2019-01-30T01:46:36.793Z,33.25
2019-01-30T01:47:36.844Z,34.05
2019-01-30T01:48:36.804Z,34.66
2019-01-30T01:49:36.764Z,34.86
2019-01-30T01:50:36.773Z,35.14
2019-01-30T01:51:36.757Z,34.74
2019-01-30T01:52:36.795Z,33.95
2019-01-30T01:53:36.741Z,34.24
2019-01-30T01:54:36.724Z,34.25
2019-01-30T01:55:36.722Z,34.56
2019-01-30T01:56:36.741Z,32.34
2019-01-30T01:57:36.692Z,33.15
2019-01-30T01:58:36.686Z,33.23
2019-01-30T01:59:36.644Z,33.53
2019-01-30T02:00:36.719Z,33.23
2019-01-30T02:01:36.627Z,34.56
2019-01-30T02:02:36.674Z,34.84
2019-01-30T02:03:36.597Z,33.13
2019-01-30T02:04:36.611Z,33.33
2019-01-30T02:05:36.585Z,33.25
2019-01-30T02:06:36.588Z,33.15
2019-01-30T02:07:36.600Z,33.23
2019-01-30T02:08:36.563Z,33.25
2019-01-30T02:09:36.565Z,33.15
2019-01-30T02:10:36.546Z,33.45
2019-01-30T02:11:36.546Z,34.76
2019-01-30T02:12:36.551Z,33.04
2019-01-30T02:13:36.518Z,33.04
2019-01-30T02:14:36.517Z,33.65
2019-01-30T02:15:36.498Z,33.35
2019-01-30T02:16:36.473Z,33.87
2019-01-30T02:17:36.552Z,34.36
2019-01-30T02:18:36.494Z,33.65
2019-01-30T02:19:36.483Z,33.04
2019-01-30T02:20:36.469Z,33.25
2019-01-30T02:21:36.458Z,34.56
2019-01-30T02:22:36.515Z,32.54
2019-01-30T02:23:36.433Z,33.55
2019-01-30T02:24:36.423Z,34.66
2019-01-30T02:25:36.397Z,33.45
2019-01-30T02:26:36.387Z,33.45
2019-01-30T02:27:36.400Z,32.75
2019-01-30T02:28:36.349Z,32.44
2019-01-30T02:29:36.321Z,32.95
2019-01-30T02:30:46.603Z,33.95
2019-01-30T02:31:36.319Z,33.04
2019-01-30T02:32:36.331Z,33.04
2019-01-30T02:33:36.281Z,32.95
2019-01-30T02:34:36.266Z,33.04
2019-01-30T02:35:36.265Z,33.25
2019-01-30T02:36:36.263Z,32.95
2019-01-30T02:37:36.278Z,33.25
2019-01-30T02:38:36.223Z,32.34
2019-01-30T02:39:36.250Z,33.45
2019-01-30T02:40:36.223Z,33.95
2019-01-30T02:41:36.268Z,33.04
2019-01-30T02:42:36.272Z,33.45
2019-01-30T02:43:36.251Z,32.64
2019-01-30T02:44:36.155Z,33.04
2019-01-30T02:45:36.261Z,32.75
2019-01-30T02:46:36.140Z,33.15
2019-01-30T02:47:36.229Z,33.15
2019-01-30T02:48:36.137Z,35.16
2019-01-30T02:49:36.110Z,33.25
2019-01-30T02:50:36.111Z,33.15
2019-01-30T02:51:36.091Z,33.06
2019-01-30T02:52:36.172Z,32.54
2019-01-30T02:53:36.082Z,33.75
2019-01-30T02:54:36.086Z,33.06
2019-01-30T02:55:36.057Z,32.75
2019-01-30T02:56:36.064Z,33.65
2019-01-30T02:57:36.054Z,33.45
2019-01-30T02:58:36.034Z,32.95
2019-01-30T02:59:36.006Z,32.75
2019-01-30T03:00:36.018Z,32.64
2019-01-30T03:01:36.081Z,32.54
2019-01-30T03:02:36.026Z,33.25
2019-01-30T03:03:35.972Z,33.15
2019-01-30T03:04:35.970Z,33.65
2019-01-30T03:05:35.953Z,33.06
2019-01-30T03:06:35.919Z,33.35
2019-01-30T03:07:36.049Z,33.35
2019-01-30T03:08:35.914Z,32.84
2019-01-30T03:09:35.915Z,34.05
2019-01-30T03:10:35.881Z,33.04
2019-01-30T03:11:35.869Z,33.04
2019-01-30T03:12:35.850Z,32.64
2019-01-30T03:13:36.009Z,33.26
2019-01-30T03:14:35.874Z,33.04
2019-01-30T03:15:35.844Z,32.95
2019-01-30T03:16:35.828Z,32.95
2019-01-30T03:17:35.881Z,33.47
2019-01-30T03:18:35.976Z,34.57
2019-01-30T03:19:35.819Z,35.16
2019-01-30T03:20:35.797Z,33.16
2019-01-30T03:21:35.789Z,33.06
2019-01-30T03:22:35.801Z,33.56
2019-01-30T03:23:35.832Z,32.86
2019-01-30T03:24:35.766Z,33.65
2019-01-30T03:25:35.747Z,34.47
2019-01-30T03:26:35.746Z,33.55
2019-01-30T03:27:35.742Z,33.26
2019-01-30T03:28:35.837Z,33.67
2019-01-30T03:29:35.710Z,33.26
2019-01-30T03:30:35.652Z,32.84
2019-01-30T03:31:35.663Z,33.25
2019-01-30T03:32:35.633Z,33.36
2019-01-30T03:33:35.655Z,33.36
2019-01-30T03:34:35.664Z,33.04
2019-01-30T03:35:35.645Z,32.46
2019-01-30T03:36:35.611Z,33.06
2019-01-30T03:37:35.587Z,33.26
2019-01-30T03:38:35.640Z,33.76
2019-01-30T03:39:35.566Z,34.45
2019-01-30T03:40:35.572Z,33.76
2019-01-30T03:41:35.543Z,33.97
2019-01-30T03:42:35.614Z,32.76
2019-01-30T03:43:35.568Z,31.85
2019-01-30T03:44:35.499Z,34.17
2019-01-30T03:45:35.500Z,32.76
2019-01-30T03:46:35.517Z,32.76
2019-01-30T03:47:35.500Z,33.36
2019-01-30T03:48:35.508Z,32.76
2019-01-30T03:49:35.447Z,33.06
2019-01-30T03:50:35.436Z,33.56
2019-01-30T03:51:35.447Z,32.95
2019-01-30T03:52:35.545Z,33.56
2019-01-30T03:53:35.435Z,33.56
2019-01-30T03:54:35.424Z,34.47
2019-01-30T03:55:35.383Z,33.36
2019-01-30T03:56:35.423Z,33.06
2019-01-30T03:57:35.362Z,34.57
2019-01-30T03:58:35.390Z,33.26
2019-01-30T03:59:35.406Z,34.17
2019-01-30T04:00:35.391Z,34.57
2019-01-30T04:01:35.339Z,32.96
2019-01-30T04:02:35.348Z,32.86
2019-01-30T04:03:35.336Z,33.47
2019-01-30T04:04:35.344Z,33.16
2019-01-30T04:05:35.326Z,34.47
2019-01-30T04:06:35.351Z,33.87
2019-01-30T04:07:35.325Z,33.56
2019-01-30T04:08:35.310Z,33.97
2019-01-30T04:09:35.333Z,34.57
2019-01-30T04:10:35.257Z,33.87
2019-01-30T04:11:35.230Z,33.26
2019-01-30T04:12:35.241Z,33.04
2019-01-30T04:13:35.237Z,35.17
2019-01-30T04:14:36.599Z,33.75
2019-01-30T04:15:35.512Z,35.17
2019-01-30T04:16:35.213Z,34.76
2019-01-30T04:17:35.224Z,34.36
2019-01-30T04:18:35.280Z,33.75
2019-01-30T04:19:35.156Z,33.95
2019-01-30T04:20:35.200Z,36.57
2019-01-30T04:21:35.188Z,35.06
2019-01-30T04:22:35.170Z,35.57
2019-01-30T04:23:35.257Z,35.36
2019-01-30T04:24:35.137Z,34.66
2019-01-30T04:25:35.166Z,32.53
2019-01-30T04:26:35.097Z,33.73
2019-01-30T04:27:35.072Z,33.65
2019-01-30T04:28:35.073Z,32.73
2019-01-30T04:29:35.143Z,32.93
2019-01-30T04:30:35.025Z,33.84
2019-01-30T04:31:38.325Z,33.55
2019-01-30T04:32:35.025Z,33.44
2019-01-30T04:33:35.025Z,34.84
2019-01-30T04:34:34.999Z,33.33
2019-01-30T04:35:34.978Z,34.54
2019-01-30T04:36:34.989Z,32.63
2019-01-30T04:37:34.959Z,33.44
2019-01-30T04:38:34.991Z,33.53
2019-01-30T04:39:34.920Z,33.23
2019-01-30T04:40:34.943Z,31.82
2019-01-30T04:41:34.924Z,32.83
2019-01-30T04:42:34.877Z,33.42
2019-01-30T04:43:35.017Z,32.43
2019-01-30T04:44:34.933Z,33.22
2019-01-30T04:45:34.881Z,33.01
2019-01-30T04:46:34.837Z,32.21
2019-01-30T04:47:34.847Z,32.61
2019-01-30T04:48:34.887Z,32.61
2019-01-30T04:49:34.862Z,32.71
2019-01-30T04:50:34.826Z,32.21
2019-01-30T04:51:34.810Z,32.41
2019-01-30T04:52:34.817Z,32.21
2019-01-30T04:53:35.127Z,32.41
2019-01-30T04:54:36.079Z,32.11
2019-01-30T04:55:34.731Z,32.31
2019-01-30T04:56:34.771Z,30.60
2019-01-30T04:57:34.711Z,32.61
2019-01-30T04:58:34.776Z,32.61
2019-01-30T04:59:34.759Z,31.40
2019-01-30T05:00:34.741Z,31.30
2019-01-30T05:01:34.969Z,31.91
2019-01-30T05:02:34.742Z,32.21
2019-01-30T05:03:34.676Z,32.41
2019-01-30T05:04:34.726Z,32.01
2019-01-30T05:05:34.701Z,33.11
2019-01-30T05:06:34.681Z,32.81
2019-01-30T05:07:34.643Z,32.31
2019-01-30T05:08:34.636Z,32.11
2019-01-30T05:09:34.677Z,31.30
2019-01-30T05:10:34.629Z,30.60
2019-01-30T05:11:34.618Z,31.40
2019-01-30T05:12:34.823Z,32.91
2019-01-30T05:13:34.533Z,32.41
2019-01-30T05:14:34.659Z,31.00
2019-01-30T05:15:34.578Z,30.90
2019-01-30T05:16:34.567Z,31.30
2019-01-30T05:17:34.595Z,32.61
2019-01-30T05:18:34.527Z,32.01
2019-01-30T05:19:34.638Z,32.01
2019-01-30T05:20:34.521Z,32.11
2019-01-30T05:21:34.504Z,32.11
2019-01-30T05:22:34.505Z,30.62
2019-01-30T05:23:34.500Z,32.53
2019-01-30T05:24:35.763Z,32.12
2019-01-30T05:25:34.495Z,32.12
2019-01-30T05:26:34.461Z,31.02
2019-01-30T05:27:34.457Z,31.52
2019-01-30T05:28:34.437Z,31.62
2019-01-30T05:29:34.457Z,30.10
2019-01-30T05:30:34.372Z,32.32
2019-01-30T05:31:34.335Z,31.62
2019-01-30T05:32:34.373Z,31.72
2019-01-30T05:33:34.329Z,32.12
2019-01-30T05:34:44.387Z,32.63
2019-01-30T05:35:34.375Z,32.32
2019-01-30T05:36:34.311Z,30.01
2019-01-30T05:37:34.313Z,31.42
2019-01-30T05:38:34.300Z,32.32
2019-01-30T05:39:34.308Z,33.23
2019-01-30T05:40:34.461Z,31.42
2019-01-30T05:41:34.242Z,32.43
2019-01-30T05:42:34.233Z,31.92
2019-01-30T05:43:34.202Z,32.63
2019-01-30T05:44:34.261Z,32.32
2019-01-30T05:45:34.241Z,32.03
2019-01-30T05:46:34.214Z,32.32
2019-01-30T05:47:34.186Z,32.34
2019-01-30T05:48:34.148Z,32.73
2019-01-30T05:49:34.195Z,31.62
2019-01-30T05:50:34.174Z,32.73
2019-01-30T05:51:34.151Z,32.23
2019-01-30T05:52:34.327Z,33.33
2019-01-30T05:53:34.136Z,31.62
2019-01-30T05:54:35.340Z,32.84
2019-01-30T05:55:34.084Z,33.33
2019-01-30T05:56:34.104Z,32.63
2019-01-30T05:57:34.053Z,32.93
2019-01-30T05:58:34.093Z,32.23
2019-01-30T05:59:34.078Z,32.73
2019-01-30T06:00:44.079Z,32.73
2019-01-30T06:01:34.004Z,33.44
2019-01-30T06:02:34.012Z,32.04
2019-01-30T06:03:34.006Z,32.32
2019-01-30T06:04:34.018Z,30.82
2019-01-30T06:05:33.975Z,32.43
2019-01-30T06:06:33.955Z,32.12
2019-01-30T06:07:35.097Z,32.63
2019-01-30T06:08:33.983Z,31.32
2019-01-30T06:09:33.963Z,30.31
2019-01-30T06:10:33.955Z,32.12
2019-01-30T06:11:33.910Z,31.73
2019-01-30T06:12:33.918Z,31.73
2019-01-30T06:13:33.882Z,32.32
2019-01-30T06:14:33.871Z,32.32
2019-01-30T06:15:33.875Z,31.43
2019-01-30T06:16:33.893Z,31.84
2019-01-30T06:17:33.883Z,32.14
2019-01-30T06:18:33.871Z,31.82
2019-01-30T06:19:33.849Z,31.92
2019-01-30T06:20:33.839Z,32.24
2019-01-30T06:21:33.822Z,32.32
2019-01-30T06:22:33.833Z,32.04
2019-01-30T06:23:33.829Z,31.52
2019-01-30T06:24:33.812Z,31.93
2019-01-30T06:25:33.796Z,32.63
2019-01-30T06:26:33.804Z,32.34
2019-01-30T06:27:33.750Z,32.12
2019-01-30T06:28:35.190Z,31.82
2019-01-30T06:29:43.739Z,32.12
2019-01-30T06:30:33.738Z,31.82
2019-01-30T06:31:33.684Z,32.34
2019-01-30T06:32:34.433Z,33.45
2019-01-30T06:33:33.700Z,32.95
2019-01-30T06:34:33.649Z,31.93
2019-01-30T06:35:33.681Z,33.45
2019-01-30T06:36:33.633Z,32.75
2019-01-30T06:37:33.619Z,32.44
2019-01-30T06:38:33.615Z,32.04
2019-01-30T06:39:33.599Z,31.73
2019-01-30T06:40:35.098Z,31.84
2019-01-30T06:41:33.573Z,31.23
2019-01-30T06:42:33.793Z,32.73
2019-01-30T06:43:33.574Z,31.73
2019-01-30T06:44:33.539Z,32.23
2019-01-30T06:45:33.553Z,31.92
2019-01-30T06:46:33.518Z,32.24
2019-01-30T06:47:33.711Z,32.12
2019-01-30T06:48:33.501Z,32.24
2019-01-30T06:49:33.518Z,32.04
2019-01-30T06:50:43.569Z,31.52
2019-01-30T06:51:33.493Z,32.44
2019-01-30T06:52:33.460Z,31.92
2019-01-30T06:53:33.433Z,32.03
2019-01-30T06:54:33.434Z,32.32
2019-01-30T06:55:33.468Z,32.64
2019-01-30T06:56:33.408Z,32.23
2019-01-30T06:57:33.407Z,32.44
2019-01-30T06:58:33.401Z,31.23
2019-01-30T06:59:33.385Z,32.32
2019-01-30T07:00:33.606Z,31.42
2019-01-30T07:01:33.376Z,31.62
2019-01-30T07:02:33.365Z,31.92
2019-01-30T07:03:33.368Z,32.83
2019-01-30T07:04:33.552Z,31.84
2019-01-30T07:05:33.365Z,31.72
2019-01-30T07:06:33.316Z,32.75
2019-01-30T07:07:33.307Z,32.95
2019-01-30T07:08:33.277Z,31.84
2019-01-30T07:09:33.268Z,32.14
2019-01-30T07:10:33.365Z,32.75
2019-01-30T07:11:33.250Z,32.54
2019-01-30T07:12:33.237Z,32.84
2019-01-30T07:13:33.252Z,32.75
2019-01-30T07:14:33.212Z,31.73
2019-01-30T07:15:33.262Z,32.34
2019-01-30T07:16:33.200Z,32.84
2019-01-30T07:17:33.228Z,32.95
2019-01-30T07:18:34.414Z,33.15
2019-01-30T07:19:33.186Z,34.16
2019-01-30T07:20:33.277Z,33.35
2019-01-30T07:21:33.175Z,32.75
2019-01-30T07:22:33.157Z,32.75
2019-01-30T07:23:33.162Z,32.75
2019-01-30T07:24:34.533Z,33.25
2019-01-30T07:25:43.264Z,32.14
2019-01-30T07:26:33.253Z,32.34
2019-01-30T07:27:33.097Z,32.34
2019-01-30T07:28:33.059Z,32.24
2019-01-30T07:29:33.051Z,32.75
2019-01-30T07:30:33.094Z,33.15
2019-01-30T07:31:33.040Z,33.04
2019-01-30T07:32:41.941Z,32.54
2019-01-30T07:33:33.010Z,32.24
2019-01-30T07:34:33.006Z,32.95
2019-01-30T07:35:33.028Z,32.24
2019-01-30T07:36:33.022Z,32.34
2019-01-30T07:37:32.968Z,32.44
2019-01-30T07:38:32.960Z,31.93
2019-01-30T07:39:32.973Z,32.75
2019-01-30T07:40:32.956Z,32.34
2019-01-30T07:41:32.999Z,32.24
2019-01-30T07:42:33.144Z,31.73
2019-01-30T07:43:34.892Z,32.75
2019-01-30T07:44:32.918Z,31.03
2019-01-30T07:45:32.969Z,32.34
2019-01-30T07:46:32.930Z,32.04
2019-01-30T07:47:32.882Z,31.23
2019-01-30T07:48:32.944Z,32.44
2019-01-30T07:49:32.941Z,31.73
2019-01-30T07:50:33.981Z,31.73
2019-01-30T07:51:32.963Z,32.04
2019-01-30T07:52:32.902Z,32.44
2019-01-30T07:53:32.838Z,32.24
2019-01-30T07:54:32.793Z,32.44
2019-01-30T07:55:32.927Z,32.14
2019-01-30T07:56:32.798Z,32.44
2019-01-30T07:57:32.851Z,31.84
2019-01-30T07:58:32.791Z,32.04
2019-01-30T07:59:32.795Z,32.75
2019-01-30T08:00:32.715Z,32.64
2019-01-30T08:01:33.894Z,31.84
2019-01-30T08:02:32.785Z,31.33
2019-01-30T08:03:32.703Z,31.33
2019-01-30T08:04:32.696Z,32.14
2019-01-30T08:05:32.726Z,32.44
2019-01-30T08:06:32.782Z,32.84
2019-01-30T08:07:32.674Z,32.64
2019-01-30T08:08:32.918Z,32.14
2019-01-30T08:09:32.626Z,32.44
2019-01-30T08:10:32.708Z,32.04
2019-01-30T08:11:33.200Z,32.64
2019-01-30T08:12:32.736Z,32.84
2019-01-30T08:13:32.581Z,32.54
2019-01-30T08:14:32.639Z,32.34
2019-01-30T08:15:32.576Z,32.04
2019-01-30T08:16:32.549Z,31.93
2019-01-30T08:17:32.672Z,33.04
2019-01-30T08:18:32.540Z,31.84
2019-01-30T08:19:32.630Z,32.75
2019-01-30T08:20:32.614Z,32.04
2019-01-30T08:21:32.712Z,32.14
2019-01-30T08:22:32.678Z,31.84
2019-01-30T08:23:32.647Z,31.93
2019-01-30T08:24:32.543Z,32.04
2019-01-30T08:25:32.764Z,32.04
2019-01-30T08:26:32.737Z,32.34
2019-01-30T08:27:34.073Z,33.04
2019-01-30T08:28:32.655Z,32.04
2019-01-30T08:29:32.506Z,32.95
2019-01-30T08:30:32.707Z,32.93
2019-01-30T08:31:32.649Z,31.82
2019-01-30T08:32:32.631Z,32.54
2019-01-30T08:33:32.386Z,32.14
2019-01-30T08:34:32.397Z,32.14
2019-01-30T08:35:32.349Z,32.63
2019-01-30T08:36:32.376Z,32.32
2019-01-30T08:37:32.355Z,33.33
2019-01-30T08:38:32.298Z,32.03
2019-01-30T08:39:32.295Z,32.44
2019-01-30T08:40:32.279Z,33.23
2019-01-30T08:41:32.262Z,32.73
2019-01-30T08:42:32.288Z,32.53
2019-01-30T08:43:32.242Z,32.03
2019-01-30T08:44:33.567Z,32.93
2019-01-30T08:45:32.444Z,33.03
2019-01-30T08:46:32.215Z,32.53
2019-01-30T08:47:32.242Z,33.53
2019-01-30T08:48:32.215Z,33.44
2019-01-30T08:49:32.180Z,33.33
2019-01-30T08:50:32.283Z,32.73
2019-01-30T08:51:32.160Z,32.93
2019-01-30T08:52:32.186Z,33.13
2019-01-30T08:53:32.143Z,31.82
2019-01-30T08:54:32.131Z,32.93
2019-01-30T08:55:32.112Z,33.64
2019-01-30T08:56:38.787Z,32.93
2019-01-30T08:57:32.508Z,32.73
2019-01-30T08:58:32.091Z,32.91
2019-01-30T08:59:32.076Z,33.01
2019-01-30T09:00:32.156Z,32.43
2019-01-30T09:01:32.070Z,31.72
2019-01-30T09:02:32.051Z,32.73
2019-01-30T09:03:32.096Z,33.94
2019-01-30T09:04:32.028Z,33.03
2019-01-30T09:05:32.001Z,33.23
2019-01-30T09:06:31.997Z,33.31
2019-01-30T09:07:32.000Z,33.44
2019-01-30T09:08:32.028Z,33.01
2019-01-30T09:09:31.961Z,33.11
2019-01-30T09:10:31.987Z,32.73
2019-01-30T09:11:31.953Z,33.01
2019-01-30T09:12:31.926Z,32.21
2019-01-30T09:13:31.983Z,32.31
2019-01-30T09:14:31.925Z,32.61
2019-01-30T09:15:31.898Z,32.91
2019-01-30T09:16:31.900Z,33.31
2019-01-30T09:17:31.942Z,32.91
2019-01-30T09:18:31.955Z,32.31
2019-01-30T09:19:31.893Z,33.01
2019-01-30T09:20:31.928Z,32.21
2019-01-30T09:21:31.862Z,32.01
2019-01-30T09:22:31.863Z,32.51
2019-01-30T09:23:31.925Z,33.31
2019-01-30T09:24:31.841Z,32.91
2019-01-30T09:25:31.835Z,34.02
2019-01-30T09:26:31.829Z,33.22
2019-01-30T09:27:31.806Z,33.31
2019-01-30T09:28:31.856Z,33.22
2019-01-30T09:29:31.799Z,32.81
2019-01-30T09:30:31.740Z,32.91
2019-01-30T09:31:31.802Z,32.91
2019-01-30T09:32:31.854Z,32.31
2019-01-30T09:33:31.733Z,33.51
2019-01-30T09:34:31.715Z,32.71
2019-01-30T09:35:31.685Z,32.31
2019-01-30T09:36:31.712Z,32.21
2019-01-30T09:37:31.719Z,31.71
2019-01-30T09:38:31.699Z,33.01
2019-01-30T09:39:31.636Z,32.81
2019-01-30T09:40:31.649Z,32.21
2019-01-30T09:41:31.646Z,32.01
2019-01-30T09:42:31.694Z,33.22
2019-01-30T09:43:31.763Z,32.71
2019-01-30T09:44:31.694Z,33.01
2019-01-30T09:45:31.662Z,32.61
2019-01-30T09:46:33.907Z,32.51
2019-01-30T09:47:31.619Z,32.71
2019-01-30T09:48:31.627Z,33.50
2019-01-30T09:49:31.525Z,31.69
2019-01-30T09:50:34.130Z,32.90
2019-01-30T09:51:31.779Z,32.59
2019-01-30T09:52:31.620Z,31.99
2019-01-30T09:53:32.026Z,32.70
2019-01-30T09:54:31.487Z,32.50
2019-01-30T09:55:31.760Z,32.79
2019-01-30T09:56:31.460Z,31.79
2019-01-30T09:57:31.456Z,31.99
2019-01-30T09:58:31.452Z,32.39
2019-01-30T09:59:31.456Z,32.79
2019-01-30T10:00:31.420Z,32.90
2019-01-30T10:01:31.428Z,33.22
2019-01-30T10:02:31.392Z,32.79
2019-01-30T10:03:36.473Z,33.10
2019-01-30T10:04:31.394Z,32.20
2019-01-30T10:05:31.389Z,32.09
2019-01-30T10:06:31.359Z,33.00
2019-01-30T10:07:31.371Z,31.89
2019-01-30T10:08:31.320Z,31.71
2019-01-30T10:09:31.337Z,32.70
2019-01-30T10:10:31.316Z,32.90
2019-01-30T10:11:31.312Z,32.70
2019-01-30T10:12:31.276Z,32.79
2019-01-30T10:13:31.258Z,32.79
2019-01-30T10:14:31.317Z,33.00
2019-01-30T10:15:31.254Z,32.50
2019-01-30T10:16:31.226Z,31.69
2019-01-30T10:17:31.573Z,33.50
2019-01-30T10:18:31.287Z,32.70
2019-01-30T10:19:31.327Z,32.50
2019-01-30T10:20:32.523Z,32.90
2019-01-30T10:21:31.247Z,32.59
2019-01-30T10:22:31.220Z,32.39
2019-01-30T10:23:31.223Z,32.29
2019-01-30T10:24:31.206Z,31.69
2019-01-30T10:25:31.195Z,32.50
2019-01-30T10:26:31.171Z,32.29
2019-01-30T10:27:31.180Z,32.09
2019-01-30T10:28:31.172Z,32.39
2019-01-30T10:29:31.131Z,32.09
2019-01-30T10:30:31.167Z,32.70
2019-01-30T10:31:31.217Z,32.48
2019-01-30T10:32:31.131Z,32.08
2019-01-30T10:33:31.083Z,32.18
2019-01-30T10:34:31.105Z,31.77
2019-01-30T10:35:31.078Z,32.38
2019-01-30T10:36:31.065Z,32.08
2019-01-30T10:37:31.067Z,32.38
2019-01-30T10:38:31.088Z,33.18
2019-01-30T10:39:31.012Z,32.58
2019-01-30T10:40:31.004Z,32.68
2019-01-30T10:41:30.970Z,31.98
2019-01-30T10:42:31.007Z,32.48
2019-01-30T10:43:30.948Z,33.48
2019-01-30T10:44:30.952Z,32.88
2019-01-30T10:45:30.981Z,33.69
2019-01-30T10:46:30.910Z,33.18
2019-01-30T10:47:30.897Z,33.59
2019-01-30T10:48:30.889Z,33.28
2019-01-30T10:49:30.949Z,33.39
2019-01-30T10:50:30.968Z,33.59
2019-01-30T10:51:30.882Z,33.39
2019-01-30T10:52:30.853Z,34.29
2019-01-30T10:53:30.848Z,34.29
2019-01-30T10:54:30.811Z,35.10
2019-01-30T10:55:30.915Z,35.30
2019-01-30T10:56:30.806Z,35.30
2019-01-30T10:57:30.842Z,35.10
2019-01-30T10:58:30.783Z,34.69
2019-01-30T10:59:30.776Z,34.69
2019-01-30T11:00:30.796Z,34.99
2019-01-30T11:01:31.225Z,35.50
2019-01-30T11:02:30.774Z,35.60
2019-01-30T11:03:30.806Z,35.10
2019-01-30T11:04:30.717Z,35.50
2019-01-30T11:05:30.836Z,34.89
2019-01-30T11:06:30.762Z,35.50
2019-01-30T11:07:30.899Z,34.89
2019-01-30T11:08:30.737Z,34.78
2019-01-30T11:09:30.790Z,35.28
2019-01-30T11:10:30.715Z,35.28
2019-01-30T11:11:31.115Z,35.58
2019-01-30T11:12:30.696Z,35.28
2019-01-30T11:13:30.750Z,34.96
2019-01-30T11:14:30.670Z,35.86
2019-01-30T11:15:30.757Z,36.69
2019-01-30T11:16:30.731Z,36.57
2019-01-30T11:17:30.777Z,36.87
2019-01-30T11:18:30.725Z,34.76
2019-01-30T11:19:30.690Z,36.67
2019-01-30T11:20:30.804Z,35.26
2019-01-30T11:21:30.733Z,35.25
2019-01-30T11:22:31.673Z,35.55
2019-01-30T11:23:31.685Z,34.84
2019-01-30T11:24:33.632Z,35.64
2019-01-30T11:25:30.694Z,35.44
2019-01-30T11:26:30.644Z,34.94
2019-01-30T11:27:51.675Z,35.25
2019-01-30T11:28:30.595Z,34.44
2019-01-30T11:29:30.571Z,34.64
2019-01-30T11:30:30.819Z,35.05
2019-01-30T11:31:33.578Z,35.26
2019-01-30T11:32:30.614Z,34.56
2019-01-30T11:33:31.536Z,34.96
2019-01-30T11:34:31.540Z,34.76
2019-01-30T11:35:30.580Z,35.06
2019-01-30T11:36:39.865Z,34.64
2019-01-30T11:37:30.501Z,35.06
2019-01-30T11:38:30.496Z,35.35
2019-01-30T11:39:30.461Z,35.57
2019-01-30T11:40:33.498Z,33.55
2019-01-30T11:41:30.458Z,35.06
2019-01-30T11:42:31.443Z,33.55
2019-01-30T11:43:31.421Z,34.86
2019-01-30T11:44:30.399Z,34.96
2019-01-30T11:45:31.021Z,34.78
2019-01-30T11:46:30.379Z,34.76
2019-01-30T11:47:30.373Z,35.06
2019-01-30T11:48:30.412Z,33.27
2019-01-30T11:49:30.417Z,33.27
2019-01-30T11:50:30.394Z,33.67
2019-01-30T11:51:30.334Z,34.58
2019-01-30T11:52:33.299Z,33.27
2019-01-30T11:53:30.305Z,33.37
2019-01-30T11:54:38.677Z,33.89
2019-01-30T11:55:30.325Z,33.08
2019-01-30T11:56:30.289Z,32.98
2019-01-30T11:57:30.246Z,34.59
2019-01-30T11:58:30.226Z,35.10
2019-01-30T11:59:30.540Z,33.79
2019-01-30T12:00:30.424Z,33.28
2019-01-30T12:01:33.438Z,33.39
2019-01-30T12:02:30.312Z,33.69
2019-01-30T12:03:30.342Z,33.28
2019-01-30T12:04:30.306Z,34.49
2019-01-30T12:05:33.233Z,33.59
2019-01-30T12:06:30.430Z,33.79
2019-01-30T12:07:31.914Z,33.89
2019-01-30T12:08:30.436Z,34.29
2019-01-30T12:09:30.271Z,34.69
2019-01-30T12:10:30.311Z,34.79
2019-01-30T12:11:30.349Z,34.59
2019-01-30T12:12:30.234Z,34.59
2019-01-30T12:13:30.336Z,34.39
2019-01-30T12:14:30.627Z,33.48
2019-01-30T12:15:31.870Z,34.29
2019-01-30T12:16:30.353Z,33.59
2019-01-30T12:17:30.164Z,33.59
2019-01-30T12:18:30.223Z,34.99
2019-01-30T12:19:30.207Z,34.39
2019-01-30T12:20:30.238Z,34.59
2019-01-30T12:21:30.323Z,33.39
2019-01-30T12:22:30.299Z,34.59
2019-01-30T12:23:30.183Z,34.39
2019-01-30T12:24:31.142Z,34.39
2019-01-30T12:25:30.274Z,33.39
2019-01-30T12:26:30.036Z,33.39
2019-01-30T12:27:29.968Z,34.69
2019-01-30T12:28:31.972Z,35.19
2019-01-30T12:29:29.836Z,34.89
2019-01-30T12:30:29.816Z,33.69
2019-01-30T12:31:29.794Z,34.09
2019-01-30T12:32:29.791Z,33.48
2019-01-30T12:33:29.814Z,33.48
2019-01-30T12:34:29.754Z,34.49
2019-01-30T12:35:29.763Z,34.49
2019-01-30T12:36:31.918Z,33.79
2019-01-30T12:37:29.752Z,33.39
2019-01-30T12:38:30.917Z,34.29
2019-01-30T12:39:31.687Z,33.39
2019-01-30T12:40:29.709Z,33.59
2019-01-30T12:41:29.661Z,34.99
2019-01-30T12:42:29.678Z,33.79
2019-01-30T12:43:29.641Z,34.39
2019-01-30T12:44:29.614Z,34.69
2019-01-30T12:45:29.614Z,34.49
2019-01-30T12:46:29.619Z,34.39
2019-01-30T12:47:29.667Z,35.10
2019-01-30T12:48:29.579Z,34.49
2019-01-30T12:49:29.567Z,34.49
2019-01-30T12:50:29.562Z,33.59
2019-01-30T12:51:29.570Z,34.49
2019-01-30T12:52:29.592Z,33.28